Moneta, VA

8:43 PM EDT on October 21, 2014 (GMT -0400)
Smith Mountain Lake @ Hales Ford Bridge | Change Station
CLOSE
Current Station
Personal Weather Station
Location: Moneta, VA
Elevation: 825 ft
Nearby Weather Stations

Elev 825 ft 37.15 °N, 79.68 °W | Updated 0 second ago

Mostly Cloudy
Mostly Cloudy
54.7 °F
Feels Like 54.7 °F
N
2.0
Wind Variable Wind from SE
Gusts 5.0 mph

Today
High -- | Low -- °F
--% Chance of Precip.
Yesterday
High -- | Low -- °F
Precip. -- in
7:32 AM 6:33 PM
Waning Crescent, 4% visible
Pressure 29.97 in
Visibility 10.0 miles
Clouds Mostly Cloudy 4200 ft
Mostly Cloudy 9500 ft
Dew Point 47 °F
Humidity 75%
Rainfall 0.00 in
Snow Depth Not available.
UV 0 out of 12
Pollen 1.60 out of 12
Ozone Good
PM2.5 Good
Flu Activity Local Activity
METAR KROA 212354Z 30008G15KT 10SM BKN042 BKN095 11/03 A2997 RMK AO2 SLP149 60000 T01110033 10172 20111 51023

More Conditions Fewer Conditions

Pressure 29.97 in
Visibility 10.0 miles
Clouds Mostly Cloudy 4200 ft
Mostly Cloudy 9500 ft
Dew Point 47 °F
Humidity 75%
Rainfall 0.00 in
Snow Depth Not available.
UV 0 out of 12
Pollen 1.60 out of 12
Ozone Good
PM2.5 Good
Flu Activity Local Activity
METAR KROA 212354Z 30008G15KT 10SM BKN042 BKN095 11/03 A2997 RMK AO2 SLP149 60000 T01110033 10172 20111 51023

More Conditions Fewer Conditions

10-Day Weather Forecast

Almanac

Astronomy

Oct. 21, 2014 Rise Set
Actual Time 7:32 AM EDT 6:33 PM EDT
Civil Twilight 7:05 AM EDT 7:00 PM EDT
Nautical Twilight 6:35 AM EDT 7:30 PM EDT
Astronomical Twilight 6:05 AM EDT 8:00 PM EDT
Moon 5:17 AM EDT (10/21) 5:24 PM EDT (10/21)
Length of Visible Light 11h 54m
Length of Day
11h 01m
Tomorrow will be 2m 13s shorter.
Waning Crescent, 4% of the Moon is Illuminated
Today
Waning Crescent
Oct 23
New
Oct 30
First Quarter
Nov 6
Full
Nov 14
Last Quarter

Today's Extremes

State Highs State Lows

Community

WunderPhotos

Upload Photos

1,763,837 photos uploaded!

Nearby

Air Quality

  Air Quality AQ Index Pollutant
Yesterday Good
OZONE
Yesterday Good
PM2.5
Current Good
PM2.5
Current Good
OZONE
Tuesday Good
PM2.5
Wednesday Good
PM2.5

Snow Depth

Station Depth Elevation
No new snow has been reported.

Earthquake Activity

City Distance Mag. Time & Date
No recent earthquake activity has been reported nearby.
Minimum magnitude displayed is 2.5.

Coastal Water Temperatures

Place Temperature
No Stations Reporting

Nearby Weather Stations